createdAt,value
2018-01-20T00:01:02.133Z,13.37
2018-01-20T00:03:31.013Z,11.03
2018-01-20T00:05:59.859Z,10.40
2018-01-20T00:08:28.687Z,14.40
2018-01-20T00:11:03.331Z,14.10
2018-01-20T00:13:32.199Z,19.63
2018-01-20T00:16:01.038Z,19.07
2018-01-20T00:18:29.943Z,18.63
2018-01-20T00:20:58.786Z,15.23
2018-01-20T00:23:27.641Z,17.43
2018-01-20T00:26:02.378Z,10.97
2018-01-20T00:28:31.219Z,15.10
2018-01-20T00:31:00.069Z,15.23
2018-01-20T00:33:28.952Z,13.93
2018-01-20T00:35:57.791Z,23.77
2018-01-20T00:38:26.674Z,19.43
2018-01-20T00:40:55.552Z,19.73
2018-01-20T00:43:24.388Z,11.27
2018-01-20T00:45:53.690Z,14.80
2018-01-20T00:48:22.575Z,12.80
2018-01-20T00:50:51.406Z,13.20
2018-01-20T00:53:20.256Z,8.80
2018-01-20T00:55:49.119Z,12.60
2018-01-20T00:58:18.010Z,15.27
2018-01-20T01:00:46.883Z,14.80
2018-01-20T01:03:15.748Z,10.43
2018-01-20T01:05:44.580Z,9.83
2018-01-20T01:08:13.470Z,7.73
2018-01-20T01:10:42.319Z,9.10
2018-01-20T01:13:11.152Z,13.73
2018-01-20T01:15:40.023Z,6.60
2018-01-20T01:18:08.910Z,8.70
2018-01-20T01:20:37.748Z,11.63
2018-01-20T01:23:06.579Z,9.57
2018-01-20T01:25:35.433Z,11.23
2018-01-20T01:28:04.273Z,9.67
2018-01-20T01:30:33.249Z,9.90
2018-01-20T01:33:02.113Z,9.53
2018-01-20T01:35:31.004Z,11.53
2018-01-20T01:37:59.866Z,9.77
2018-01-20T01:40:28.728Z,10.77
2018-01-20T01:42:57.583Z,10.80
2018-01-20T01:45:26.423Z,10.13
2018-01-20T01:47:55.280Z,16.30
2018-01-20T01:50:24.111Z,7.47
2018-01-20T01:52:52.988Z,9.07
2018-01-20T01:55:21.839Z,7.47
2018-01-20T01:57:50.703Z,11.50
2018-01-20T02:00:19.552Z,14.57
2018-01-20T02:02:48.412Z,8.33
2018-01-20T02:05:17.262Z,10.70
2018-01-20T02:07:46.100Z,8.70
2018-01-20T02:10:14.986Z,11.17
2018-01-20T02:12:43.810Z,7.63
2018-01-20T02:15:12.714Z,10.27
2018-01-20T02:17:41.576Z,9.37
2018-01-20T02:20:10.420Z,7.63
2018-01-20T02:22:39.469Z,10.80
2018-01-20T02:25:08.379Z,10.53
2018-01-20T02:27:37.212Z,10.40
2018-01-20T02:30:06.060Z,11.63
2018-01-20T02:32:34.948Z,11.93
2018-01-20T02:35:03.804Z,12.20
2018-01-20T02:37:33.646Z,10.23
2018-01-20T02:40:02.646Z,8.17
2018-01-20T02:42:31.486Z,8.27
2018-01-20T02:45:00.328Z,9.07
2018-01-20T02:47:29.210Z,10.37
2018-01-20T02:49:58.070Z,9.57
2018-01-20T02:52:26.918Z,10.57
2018-01-20T02:54:55.788Z,9.63
2018-01-20T02:57:24.618Z,9.90
2018-01-20T02:59:53.694Z,8.67
2018-01-20T03:02:22.574Z,8.97
2018-01-20T03:04:51.424Z,13.20
2018-01-20T03:07:20.276Z,9.43
2018-01-20T03:09:49.166Z,12.07
2018-01-20T03:12:18.010Z,8.43
2018-01-20T03:14:46.872Z,5.20
2018-01-20T03:17:15.788Z,9.50
2018-01-20T03:19:44.616Z,9.10
2018-01-20T03:22:13.770Z,10.67
2018-01-20T03:24:42.628Z,11.00
2018-01-20T03:27:11.512Z,8.43
2018-01-20T03:29:40.354Z,14.03
2018-01-20T03:32:09.228Z,12.60
2018-01-20T03:34:38.066Z,11.67
2018-01-20T03:37:06.930Z,10.93
2018-01-20T03:39:35.801Z,8.37
2018-01-20T03:42:04.652Z,9.90
2018-01-20T03:44:33.506Z,9.87
2018-01-20T03:47:02.360Z,9.47
2018-01-20T03:49:31.192Z,8.63
2018-01-20T03:52:00.051Z,10.33
2018-01-20T03:54:28.950Z,11.10
2018-01-20T03:56:57.788Z,9.57
2018-01-20T03:59:26.654Z,7.03
2018-01-20T04:01:55.510Z,14.33
2018-01-20T04:04:24.346Z,11.20
2018-01-20T04:06:53.178Z,10.20
2018-01-20T04:09:22.100Z,9.97
2018-01-20T04:11:50.946Z,12.07
2018-01-20T04:14:19.774Z,8.70
2018-01-20T04:16:48.632Z,12.33
2018-01-20T04:19:17.468Z,11.27
2018-01-20T04:21:46.312Z,10.43
2018-01-20T04:24:15.158Z,11.07
2018-01-20T04:26:44.006Z,13.90
2018-01-20T04:29:12.840Z,11.10
2018-01-20T04:31:41.827Z,8.67
2018-01-20T04:34:10.726Z,9.93
2018-01-20T04:36:40.446Z,13.20
2018-01-20T04:39:09.342Z,12.67
2018-01-20T04:41:38.174Z,10.20
2018-01-20T04:44:07.050Z,12.83
2018-01-20T04:46:35.954Z,9.93
2018-01-20T04:49:04.810Z,11.13
2018-01-20T04:51:33.654Z,10.73
2018-01-20T04:54:02.516Z,8.47
2018-01-20T04:56:31.366Z,8.83
2018-01-20T04:59:00.224Z,8.53
2018-01-20T05:01:29.090Z,11.47
2018-01-20T05:03:57.978Z,9.30
2018-01-20T05:06:26.822Z,14.97
2018-01-20T05:08:55.695Z,10.33
2018-01-20T05:11:24.537Z,12.93
2018-01-20T05:13:53.948Z,11.50
2018-01-20T05:16:22.828Z,8.17
2018-01-20T05:18:51.662Z,7.50
2018-01-20T05:21:20.532Z,7.73
2018-01-20T05:23:50.172Z,10.63
2018-01-20T05:26:19.240Z,11.03
2018-01-20T05:28:48.762Z,8.80
2018-01-20T05:31:17.644Z,13.40
2018-01-20T05:33:46.474Z,8.13
2018-01-20T05:36:15.312Z,14.33
2018-01-20T05:38:44.199Z,9.13
2018-01-20T05:41:13.070Z,9.00
2018-01-20T05:43:41.984Z,16.43
2018-01-20T05:46:11.718Z,9.80
2018-01-20T05:48:40.552Z,8.53
2018-01-20T05:51:10.162Z,17.37
2018-01-20T05:53:39.088Z,11.47
2018-01-20T05:56:07.947Z,16.27
2018-01-20T05:58:36.786Z,10.47
2018-01-20T06:01:05.752Z,13.17
2018-01-20T06:03:34.712Z,11.10
2018-01-20T06:06:03.571Z,10.20
2018-01-20T06:08:32.465Z,11.60
2018-01-20T06:11:01.304Z,9.03
2018-01-20T06:13:30.140Z,10.83
2018-01-20T06:15:59.036Z,9.63
2018-01-20T06:18:27.870Z,13.10
2018-01-20T06:20:56.782Z,11.47
2018-01-20T06:23:25.662Z,7.00
2018-01-20T06:25:55.362Z,19.53
2018-01-20T06:28:25.236Z,15.40
2018-01-20T06:30:54.119Z,9.03
2018-01-20T06:33:22.963Z,14.87
2018-01-20T06:35:51.890Z,9.03
2018-01-20T06:38:20.820Z,11.37
2018-01-20T06:40:49.664Z,10.43
2018-01-20T06:43:19.086Z,10.10
2018-01-20T06:45:47.928Z,11.23
2018-01-20T06:48:16.794Z,12.90
2018-01-20T06:50:45.684Z,7.87
2018-01-20T06:53:15.466Z,16.40
2018-01-20T06:55:44.322Z,13.00
2018-01-20T06:58:13.570Z,11.80
2018-01-20T07:00:42.418Z,12.43
2018-01-20T07:03:11.246Z,8.73
2018-01-20T07:05:40.148Z,10.67
2018-01-20T07:08:09.000Z,7.90
2018-01-20T07:10:37.838Z,9.27
2018-01-20T07:13:07.736Z,11.90
2018-01-20T07:15:36.590Z,8.00
2018-01-20T07:18:05.480Z,11.03
2018-01-20T07:20:34.332Z,10.07
2018-01-20T07:23:03.232Z,10.03
2018-01-20T07:25:32.254Z,9.30
2018-01-20T07:28:01.144Z,11.10
2018-01-20T07:30:30.095Z,13.53
2018-01-20T07:32:59.073Z,15.87
2018-01-20T07:35:27.948Z,11.67
2018-01-20T07:37:56.929Z,11.30
2018-01-20T07:40:26.323Z,10.70
2018-01-20T07:42:55.207Z,11.03
2018-01-20T07:45:24.324Z,13.40
2018-01-20T07:47:53.739Z,12.03
2018-01-20T07:50:23.809Z,10.23
2018-01-20T07:52:53.137Z,14.23
2018-01-20T07:55:22.050Z,8.20
2018-01-20T07:57:50.929Z,10.70
2018-01-20T08:00:19.759Z,11.23
2018-01-20T08:02:48.646Z,13.50
2018-01-20T08:05:17.491Z,14.60
2018-01-20T08:07:46.663Z,14.00
2018-01-20T08:10:15.501Z,16.60
2018-01-20T08:12:44.351Z,13.70
2018-01-20T08:15:13.220Z,16.43
2018-01-20T08:17:42.133Z,15.10
2018-01-20T08:20:10.996Z,17.80
2018-01-20T08:22:39.897Z,17.80
2018-01-20T08:25:08.777Z,12.60
2018-01-20T08:27:38.152Z,16.57
2018-01-20T08:30:08.039Z,11.77
2018-01-20T08:32:36.913Z,13.50
2018-01-20T08:35:05.785Z,16.73
2018-01-20T08:37:34.665Z,14.03
2018-01-20T08:40:03.515Z,13.97
2018-01-20T08:42:33.273Z,16.50
2018-01-20T08:45:02.148Z,12.13
2018-01-20T08:47:31.561Z,14.70
2018-01-20T08:50:01.003Z,17.10
2018-01-20T08:52:29.874Z,16.13
2018-01-20T08:54:58.753Z,17.40
2018-01-20T08:57:27.661Z,14.20
2018-01-20T08:59:56.513Z,13.93
2018-01-20T09:02:25.357Z,13.63
2018-01-20T09:04:54.225Z,14.17
2018-01-20T09:07:23.471Z,17.17
2018-01-20T09:09:52.332Z,17.10
2018-01-20T09:12:21.197Z,12.03
2018-01-20T09:14:50.081Z,12.60
2018-01-20T09:17:18.915Z,14.03
2018-01-20T09:19:47.803Z,17.20
2018-01-20T09:22:16.659Z,25.37
2018-01-20T09:24:45.563Z,16.87
2018-01-20T09:27:14.625Z,28.37
2018-01-20T09:29:43.477Z,110.97
2018-01-20T09:32:12.341Z,92.87
2018-01-20T09:34:41.195Z,17.37
2018-01-20T09:37:10.047Z,14.87
2018-01-20T09:39:39.047Z,19.63
2018-01-20T09:42:08.425Z,16.27
2018-01-20T09:44:37.355Z,12.63
2018-01-20T09:47:06.195Z,13.73
2018-01-20T09:49:35.075Z,12.63
2018-01-20T09:52:03.923Z,12.00
2018-01-20T09:54:32.781Z,16.23
2018-01-20T09:57:01.659Z,11.13
2018-01-20T09:59:30.562Z,10.50
2018-01-20T10:01:59.481Z,14.37
2018-01-20T10:04:28.995Z,10.37
2018-01-20T10:06:57.851Z,11.20
2018-01-20T10:09:26.691Z,11.37
2018-01-20T10:11:55.559Z,9.23
2018-01-20T10:14:24.395Z,9.93
2018-01-20T10:16:53.251Z,12.37
2018-01-20T10:19:22.147Z,8.37
2018-01-20T10:21:51.012Z,8.87
2018-01-20T10:24:19.861Z,9.97
2018-01-20T10:26:48.751Z,9.90
2018-01-20T10:29:17.601Z,8.50
2018-01-20T10:31:46.443Z,11.53
2018-01-20T10:34:15.302Z,11.97
2018-01-20T10:36:44.494Z,10.13
2018-01-20T10:39:14.335Z,9.40
2018-01-20T10:41:43.189Z,9.23
2018-01-20T10:44:12.107Z,9.30
2018-01-20T10:46:40.955Z,7.97
2018-01-20T10:49:09.827Z,10.03
2018-01-20T10:51:38.687Z,10.70
2018-01-20T10:54:07.538Z,9.23
2018-01-20T10:56:36.407Z,11.57
2018-01-20T10:59:05.247Z,12.60
2018-01-20T11:01:34.097Z,11.07
2018-01-20T11:04:02.951Z,11.10
2018-01-20T11:06:31.839Z,11.73
2018-01-20T11:09:00.705Z,10.77
2018-01-20T11:11:30.438Z,8.80
2018-01-20T11:13:59.285Z,12.20
2018-01-20T11:16:28.160Z,12.37
2018-01-20T11:18:57.043Z,10.43
2018-01-20T11:21:25.935Z,13.90
2018-01-20T11:23:54.783Z,10.10
2018-01-20T11:26:23.726Z,11.67
2018-01-20T11:28:52.563Z,12.07
2018-01-20T11:31:21.453Z,10.33
2018-01-20T11:33:50.337Z,10.60
2018-01-20T11:36:20.117Z,9.83
2018-01-20T11:38:49.227Z,10.70
2018-01-20T11:41:18.469Z,10.60
2018-01-20T11:43:47.301Z,8.97
2018-01-20T11:46:16.896Z,10.57
2018-01-20T11:48:45.971Z,11.53
2018-01-20T11:51:14.959Z,9.87
2018-01-20T11:53:44.115Z,9.80
2018-01-20T11:56:12.965Z,8.33
2018-01-20T11:58:41.831Z,9.10
2018-01-20T12:01:10.664Z,7.37
2018-01-20T12:03:40.313Z,8.37
2018-01-20T12:06:09.151Z,7.87
2018-01-20T12:08:37.987Z,9.27
2018-01-20T12:11:06.993Z,11.30
2018-01-20T12:13:35.827Z,10.40
2018-01-20T12:16:04.676Z,9.33
2018-01-20T12:18:33.589Z,8.83
2018-01-20T12:21:02.445Z,9.00
2018-01-20T12:23:31.650Z,7.37
2018-01-20T12:26:00.729Z,8.47
2018-01-20T12:28:29.615Z,9.17
2018-01-20T12:30:58.443Z,9.47
2018-01-20T12:33:27.319Z,8.37
2018-01-20T12:38:30.696Z,10.73
2018-01-20T12:41:00.928Z,7.80
2018-01-20T12:43:32.485Z,9.73
2018-01-20T12:46:02.409Z,9.90
2018-01-20T12:48:32.183Z,11.17
2018-01-20T12:51:01.175Z,7.67
2018-01-20T12:53:30.293Z,8.60
2018-01-20T12:55:59.721Z,14.90
2018-01-20T12:58:28.688Z,10.50
2018-01-20T13:00:57.713Z,10.40
2018-01-20T13:03:26.635Z,11.43
2018-01-20T13:05:55.626Z,7.77
2018-01-20T13:08:24.945Z,7.13
2018-01-20T13:10:54.748Z,15.93
2018-01-20T13:13:25.113Z,9.20
2018-01-20T13:15:54.903Z,7.37
2018-01-20T13:18:25.251Z,9.73
2018-01-20T13:20:54.406Z,6.80
2018-01-20T13:23:23.525Z,8.63
2018-01-20T13:25:52.375Z,20.40
2018-01-20T13:28:21.235Z,12.07
2018-01-20T13:30:50.211Z,9.47
2018-01-20T13:33:19.133Z,8.90
2018-01-20T13:35:48.559Z,15.17
2018-01-20T13:38:18.031Z,9.77
2018-01-20T13:40:47.375Z,7.57
2018-01-20T13:43:16.319Z,15.40
2018-01-20T13:45:45.205Z,7.70
2018-01-20T13:48:14.075Z,6.33
2018-01-20T13:50:42.935Z,5.73
2018-01-20T13:53:11.968Z,6.17
2018-01-20T13:55:40.801Z,7.63
2018-01-20T13:58:10.833Z,6.90
2018-01-20T14:00:40.171Z,9.40
2018-01-20T14:03:09.794Z,11.20
2018-01-20T14:05:39.663Z,9.83
2018-01-20T14:08:09.206Z,8.00
2018-01-20T14:10:38.352Z,6.43
2018-01-20T14:13:07.492Z,6.40
2018-01-20T14:15:36.414Z,6.63
2018-01-20T14:18:05.259Z,5.40
2018-01-20T14:20:34.178Z,6.83
2018-01-20T14:23:03.024Z,5.93
2018-01-20T14:25:31.983Z,5.33
2018-01-20T14:28:00.912Z,7.57
2018-01-20T14:30:30.924Z,5.63
2018-01-20T14:33:00.490Z,5.23
2018-01-20T14:35:30.273Z,4.77
2018-01-20T14:37:59.174Z,4.10
2018-01-20T14:40:27.991Z,5.03
2018-01-20T14:42:56.874Z,4.73
2018-01-20T14:45:25.710Z,5.17
2018-01-20T14:47:55.696Z,5.63
2018-01-20T14:50:24.543Z,6.07
2018-01-20T14:52:53.380Z,6.30
2018-01-20T14:55:22.351Z,4.70
2018-01-20T14:57:51.418Z,4.87
2018-01-20T15:03:10.860Z,3.67
2018-01-20T15:10:54.445Z,5.37
2018-01-20T15:13:25.174Z,5.20
2018-01-20T15:15:54.258Z,5.30
2018-01-20T15:18:23.411Z,4.10
2018-01-20T15:20:53.448Z,5.80
2018-01-20T15:23:24.075Z,4.63
2018-01-20T15:25:53.584Z,6.10
2018-01-20T15:28:22.448Z,4.70
2018-01-20T15:30:51.301Z,5.43
2018-01-20T15:33:20.182Z,4.77
2018-01-20T15:35:49.397Z,4.97
2018-01-20T15:38:18.286Z,4.77
2018-01-20T15:40:47.124Z,5.33
2018-01-20T15:43:15.992Z,4.00
2018-01-20T15:45:44.856Z,5.30
2018-01-20T15:48:13.713Z,5.03
2018-01-20T15:50:42.880Z,5.10
2018-01-20T15:53:11.917Z,5.13
2018-01-20T15:55:41.409Z,5.77
2018-01-20T15:58:10.552Z,5.33
2018-01-20T16:00:39.440Z,10.13
2018-01-20T16:03:09.133Z,6.43
2018-01-20T16:05:37.980Z,8.17
2018-01-20T16:08:06.897Z,6.60
2018-01-20T16:10:35.730Z,6.77
2018-01-20T16:13:04.582Z,8.50
2018-01-20T16:15:33.446Z,6.63
2018-01-20T16:18:02.477Z,6.67
2018-01-20T16:20:32.010Z,7.07
2018-01-20T16:23:02.159Z,8.07
2018-01-20T16:25:31.917Z,7.97
2018-01-20T16:28:01.328Z,7.83
2018-01-20T16:30:30.248Z,15.60
2018-01-20T16:32:59.127Z,6.97
2018-01-20T16:35:27.988Z,6.07
2018-01-20T16:37:56.892Z,7.10
2018-01-20T16:40:25.752Z,7.53
2018-01-20T16:42:55.290Z,8.70
2018-01-20T16:45:24.272Z,8.27
2018-01-20T16:47:53.944Z,9.53
2018-01-20T16:50:24.852Z,8.97
2018-01-20T16:52:54.284Z,14.30
2018-01-20T16:55:25.364Z,29.97
2018-01-20T16:57:54.282Z,12.33
2018-01-20T17:00:24.926Z,9.93
2018-01-20T17:02:54.650Z,22.97
2018-01-20T17:05:23.502Z,17.50
2018-01-20T17:07:52.384Z,21.47
2018-01-20T17:10:21.294Z,12.33
2018-01-20T17:12:50.175Z,12.43
2018-01-20T17:15:19.324Z,11.30
2018-01-20T17:17:48.316Z,11.30
2018-01-20T17:20:17.188Z,9.73
2018-01-20T17:22:46.050Z,8.83
2018-01-20T17:25:14.926Z,9.53
2018-01-20T17:27:43.874Z,6.93
2018-01-20T17:30:12.982Z,12.13
2018-01-20T17:32:42.781Z,15.00
2018-01-20T17:35:11.989Z,13.43
2018-01-20T17:37:40.952Z,19.53
2018-01-20T17:40:10.272Z,8.60
2018-01-20T17:42:40.691Z,12.00
2018-01-20T17:45:11.118Z,6.93
2018-01-20T17:47:40.026Z,9.37
2018-01-20T17:50:08.913Z,13.47
2018-01-20T17:52:37.845Z,10.23
2018-01-20T17:55:06.724Z,9.63
2018-01-20T17:57:37.189Z,8.57
2018-01-20T18:00:06.080Z,11.80
2018-01-20T18:02:34.948Z,11.20
2018-01-20T18:05:04.160Z,10.97
2018-01-20T18:07:33.726Z,11.23
2018-01-20T18:10:02.616Z,10.27
2018-01-20T18:12:31.479Z,11.77
2018-01-20T18:15:01.218Z,10.60
2018-01-20T18:17:30.320Z,12.47
2018-01-20T18:19:59.172Z,14.23
2018-01-20T18:22:28.022Z,12.77
2018-01-20T18:24:56.932Z,12.87
2018-01-20T18:27:25.812Z,9.67
2018-01-20T18:29:54.648Z,13.10
2018-01-20T18:32:25.368Z,13.20
2018-01-20T18:34:55.050Z,12.97
2018-01-20T18:37:23.992Z,14.13
2018-01-20T18:39:52.876Z,12.30
2018-01-20T18:42:21.808Z,11.60
2018-01-20T18:44:51.376Z,12.87
2018-01-20T18:47:20.297Z,11.90
2018-01-20T18:49:49.173Z,13.47
2018-01-20T18:52:18.040Z,13.87
2018-01-20T18:54:47.898Z,14.80
2018-01-20T18:57:16.770Z,16.13
2018-01-20T18:59:46.429Z,14.70
2018-01-20T19:02:15.612Z,14.77
2018-01-20T19:04:45.275Z,8.70
2018-01-20T19:07:14.126Z,11.53
2018-01-20T19:09:43.032Z,13.00
2018-01-20T19:12:11.928Z,12.07
2018-01-20T19:14:40.768Z,17.73
2018-01-20T19:17:12.513Z,24.33
2018-01-20T19:19:41.399Z,15.47
2018-01-20T19:22:10.430Z,14.87
2018-01-20T19:24:39.351Z,11.63
2018-01-20T19:27:08.212Z,9.77
2018-01-20T19:29:37.052Z,12.73
2018-01-20T19:32:07.750Z,15.33
2018-01-20T19:34:38.708Z,12.17
2018-01-20T19:37:07.582Z,13.00
2018-01-20T19:39:36.432Z,14.57
2018-01-20T19:42:05.310Z,18.20
2018-01-20T19:44:34.236Z,14.40
2018-01-20T19:47:03.568Z,16.03
2018-01-20T19:49:33.417Z,16.57
2018-01-20T19:52:02.404Z,18.97
2018-01-20T19:54:32.306Z,18.43
2018-01-20T19:57:01.189Z,19.53
2018-01-20T19:59:30.486Z,26.97
2018-01-20T20:01:59.347Z,25.90
2018-01-20T20:04:28.222Z,18.03
2018-01-20T20:06:57.160Z,15.67
2018-01-20T20:09:25.962Z,16.67
2018-01-20T20:11:54.826Z,14.13
2018-01-20T20:14:23.698Z,16.13
2018-01-20T20:16:52.582Z,14.60
2018-01-20T20:19:21.433Z,11.83
2018-01-20T20:21:50.381Z,11.10
2018-01-20T20:24:19.780Z,11.53
2018-01-20T20:26:50.212Z,12.63
2018-01-20T20:29:19.102Z,13.80
2018-01-20T20:31:48.268Z,17.43
2018-01-20T20:34:17.112Z,16.07
2018-01-20T20:36:46.444Z,16.53
2018-01-20T20:39:15.331Z,20.47
2018-01-20T20:41:44.214Z,19.57
2018-01-20T20:44:13.084Z,25.33
2018-01-20T20:46:41.941Z,25.33
2018-01-20T20:49:10.825Z,22.70
2018-01-20T20:51:39.673Z,21.57
2018-01-20T20:54:08.504Z,19.43
2018-01-20T20:56:37.380Z,24.13
2018-01-20T20:59:06.240Z,17.47
2018-01-20T21:01:35.094Z,18.50
2018-01-20T21:04:03.988Z,21.13
2018-01-20T21:06:32.842Z,26.47
2018-01-20T21:09:01.732Z,23.43
2018-01-20T21:11:30.600Z,23.30
2018-01-20T21:13:59.450Z,20.50
2018-01-20T21:16:28.316Z,23.67
2018-01-20T21:18:57.168Z,22.90
2018-01-20T21:21:26.020Z,25.20
2018-01-20T21:23:54.932Z,23.23
2018-01-20T21:26:23.788Z,28.17
2018-01-20T21:28:52.634Z,25.20
2018-01-20T21:31:21.525Z,22.13
2018-01-20T21:33:51.314Z,24.97
2018-01-20T21:36:20.156Z,25.20
2018-01-20T21:38:49.047Z,23.40
2018-01-20T21:41:18.008Z,25.30
2018-01-20T21:43:46.862Z,26.03
2018-01-20T21:46:15.780Z,26.30
2018-01-20T21:48:44.632Z,27.30
2018-01-20T21:51:13.522Z,24.13
2018-01-20T21:53:42.423Z,23.53
2018-01-20T21:56:11.305Z,22.47
2018-01-20T21:58:40.396Z,23.03
2018-01-20T22:01:09.290Z,20.30
2018-01-20T22:03:38.162Z,23.00
2018-01-20T22:06:07.018Z,24.90
2018-01-20T22:08:35.872Z,24.53
2018-01-20T22:11:05.086Z,23.40
2018-01-20T22:13:33.962Z,25.60
2018-01-20T22:16:02.836Z,29.27
2018-01-20T22:18:31.680Z,28.20
2018-01-20T22:21:00.520Z,31.00
2018-01-20T22:23:30.254Z,28.10
2018-01-20T22:25:59.390Z,30.10
2018-01-20T22:28:28.542Z,29.37
2018-01-20T22:30:57.452Z,30.43
2018-01-20T22:33:26.314Z,30.73
2018-01-20T22:35:55.161Z,31.83
2018-01-20T22:38:24.020Z,35.40
2018-01-20T22:40:52.872Z,33.43
2018-01-20T22:43:21.726Z,31.60
2018-01-20T22:45:51.552Z,32.13
2018-01-20T22:48:20.410Z,33.77
2018-01-20T22:50:49.368Z,35.83
2018-01-20T22:53:18.294Z,33.77
2018-01-20T22:55:47.138Z,34.67
2018-01-20T22:58:15.996Z,35.23
2018-01-20T23:00:44.854Z,32.40
2018-01-20T23:03:13.706Z,30.63
2018-01-20T23:05:42.550Z,32.90
2018-01-20T23:08:11.430Z,31.07
2018-01-20T23:10:40.402Z,29.27
2018-01-20T23:13:09.235Z,29.13
2018-01-20T23:15:38.152Z,30.87
2018-01-20T23:18:07.034Z,27.60
2018-01-20T23:20:35.874Z,29.63
2018-01-20T23:23:05.660Z,29.70
2018-01-20T23:25:34.504Z,26.37
2018-01-20T23:28:03.422Z,28.60
2018-01-20T23:30:32.522Z,31.53
2018-01-20T23:33:01.367Z,29.37
2018-01-20T23:35:30.208Z,28.00
2018-01-20T23:37:59.095Z,29.47
2018-01-20T23:40:27.962Z,31.80
2018-01-20T23:42:56.815Z,30.57
2018-01-20T23:45:25.681Z,31.10
2018-01-20T23:47:54.530Z,31.90
2018-01-20T23:50:24.057Z,33.00
2018-01-20T23:52:53.021Z,31.83
2018-01-20T23:55:21.873Z,31.50
2018-01-20T23:57:51.575Z,33.40
